createdAt,value
2023-04-27T00:00:29.084Z,43.5087
2023-04-27T00:01:32.961Z,43.4131
2023-04-27T00:02:36.943Z,43.3102
2023-04-27T00:03:41.336Z,41.6236
2023-04-27T00:04:45.464Z,41.4537
2023-04-27T00:05:49.538Z,43.6323
2023-04-27T00:06:53.455Z,43.5779
2023-04-27T00:07:57.365Z,43.4866
2023-04-27T00:09:01.292Z,43.3725
2023-04-27T00:10:05.162Z,41.8550
2023-04-27T00:11:09.071Z,40.3693
2023-04-27T00:12:12.953Z,43.5150
2023-04-27T00:13:17.135Z,43.5710
2023-04-27T00:14:21.031Z,43.4553
2023-04-27T00:15:25.265Z,43.3452
2023-04-27T00:16:29.180Z,42.3913
2023-04-27T00:17:33.093Z,39.8225
2023-04-27T00:18:36.950Z,43.1867
2023-04-27T00:19:40.927Z,43.6351
2023-04-27T00:20:44.794Z,43.5706
2023-04-27T00:21:48.662Z,43.4777
2023-04-27T00:22:52.574Z,42.9616
2023-04-27T00:23:56.455Z,41.3322
2023-04-27T00:25:00.352Z,43.5403
2023-04-27T00:26:04.291Z,43.5766
2023-04-27T00:27:08.155Z,43.5108
2023-04-27T00:28:12.254Z,43.4305
2023-04-27T00:29:16.159Z,42.8307
2023-04-27T00:30:20.282Z,39.5646
2023-04-27T00:31:24.226Z,42.4342
2023-04-27T00:32:28.183Z,43.7039
2023-04-27T00:33:32.070Z,43.6192
2023-04-27T00:34:35.955Z,43.5358
2023-04-27T00:35:39.869Z,43.2829
2023-04-27T00:36:43.766Z,40.9954
2023-04-27T00:37:47.666Z,43.1460
2023-04-27T00:38:51.582Z,43.6734
2023-04-27T00:39:55.694Z,43.5849
2023-04-27T00:40:59.608Z,43.4922
2023-04-27T00:42:03.499Z,43.2362
2023-04-27T00:43:07.404Z,41.0667
2023-04-27T00:44:11.287Z,43.2302
2023-04-27T00:45:15.232Z,43.7167
2023-04-27T00:46:19.313Z,43.6759
2023-04-27T00:47:23.215Z,43.5974
2023-04-27T00:48:27.078Z,43.3371
2023-04-27T00:49:30.983Z,40.5937
2023-04-27T00:50:34.871Z,42.5465
2023-04-27T00:51:38.799Z,43.7166
2023-04-27T00:52:42.679Z,43.5686
2023-04-27T00:53:46.581Z,43.4638
2023-04-27T00:54:50.702Z,43.2807
2023-04-27T00:55:54.593Z,40.4729
2023-04-27T00:56:58.487Z,39.3324
2023-04-27T00:58:02.423Z,43.4700
2023-04-27T00:59:06.303Z,43.7655
2023-04-27T01:00:10.204Z,43.6451
2023-04-27T01:01:14.093Z,43.5529
2023-04-27T01:02:18.036Z,42.3771
2023-04-27T01:03:22.054Z,40.6231
2023-04-27T01:04:26.120Z,43.6502
2023-04-27T01:05:31.995Z,43.7218
2023-04-27T01:06:31.150Z,43.6434
2023-04-27T01:07:35.068Z,43.5492
2023-04-27T01:08:38.947Z,42.8116
2023-04-27T01:09:42.954Z,39.2917
2023-04-27T01:10:46.847Z,42.2956
2023-04-27T01:11:50.845Z,43.8579
2023-04-27T01:12:54.745Z,43.7096
2023-04-27T01:13:58.632Z,43.6068
2023-04-27T01:15:02.547Z,43.3533
2023-04-27T01:16:06.432Z,40.1342
2023-04-27T01:17:10.387Z,40.9084
2023-04-27T01:18:14.330Z,43.8680
2023-04-27T01:19:18.220Z,43.8037
2023-04-27T01:20:22.109Z,43.7015
2023-04-27T01:21:26.017Z,43.5896
2023-04-27T01:22:29.992Z,41.5766
2023-04-27T01:23:33.854Z,41.2392
2023-04-27T01:24:37.745Z,43.8509
2023-04-27T01:25:41.669Z,43.7957
2023-04-27T01:26:45.541Z,43.6943
2023-04-27T01:27:49.687Z,43.5854
2023-04-27T01:28:53.640Z,42.0745
2023-04-27T01:29:57.520Z,39.8736
2023-04-27T01:31:01.426Z,43.5646
2023-04-27T01:32:05.312Z,43.9111
2023-04-27T01:33:09.269Z,43.8139
2023-04-27T01:34:13.175Z,43.7158
2023-04-27T01:35:17.097Z,42.9432
2023-04-27T01:36:21.182Z,40.7215
2023-04-27T01:37:25.404Z,43.6823
2023-04-27T01:38:29.286Z,43.8735
2023-04-27T01:39:33.194Z,43.7710
2023-04-27T01:40:37.115Z,43.6655
2023-04-27T01:41:41.000Z,43.0386
2023-04-27T01:42:44.890Z,39.8500
2023-04-27T01:43:48.817Z,42.8531
2023-04-27T01:44:52.695Z,43.9345
2023-04-27T01:45:56.629Z,43.8383
2023-04-27T01:47:00.496Z,43.7561
2023-04-27T01:48:04.719Z,43.4573
2023-04-27T01:49:08.677Z,40.2229
2023-04-27T01:50:12.623Z,41.6893
2023-04-27T01:51:16.494Z,44.0204
2023-04-27T01:52:20.385Z,43.9386
2023-04-27T01:53:24.289Z,43.8384
2023-04-27T01:54:28.785Z,43.7025
2023-04-27T01:55:32.728Z,41.4244
2023-04-27T01:56:36.614Z,42.2601
2023-04-27T01:57:40.540Z,44.0157
2023-04-27T01:58:44.409Z,43.9337
2023-04-27T01:59:48.318Z,43.8529
2023-04-27T02:00:52.246Z,43.7410
2023-04-27T02:01:56.210Z,41.6183
2023-04-27T02:03:00.203Z,41.2245
2023-04-27T02:04:04.445Z,43.9920
2023-04-27T02:05:08.447Z,43.9489
2023-04-27T02:06:12.522Z,43.8622
2023-04-27T02:07:16.392Z,43.7619
2023-04-27T02:08:20.303Z,42.1706
2023-04-27T02:09:24.179Z,39.1840
2023-04-27T02:10:28.113Z,43.2109
2023-04-27T02:11:32.046Z,44.0862
2023-04-27T02:12:36.066Z,43.9348
2023-04-27T02:13:39.965Z,43.8305
2023-04-27T02:14:43.857Z,43.2425
2023-04-27T02:15:47.772Z,40.5411
2023-04-27T02:16:51.661Z,43.4862
2023-04-27T02:17:55.659Z,44.0352
2023-04-27T02:18:59.623Z,43.9457
2023-04-27T02:20:03.506Z,43.8496
2023-04-27T02:21:07.393Z,43.4394
2023-04-27T02:22:11.285Z,40.3048
2023-04-27T02:23:15.208Z,42.7447
2023-04-27T02:24:19.076Z,44.0926
2023-04-27T02:25:23.005Z,44.0134
2023-04-27T02:26:26.885Z,43.9242
2023-04-27T02:27:30.800Z,43.7233
2023-04-27T02:28:35.100Z,40.5147
2023-04-27T02:29:39.507Z,40.4214
2023-04-27T02:30:43.925Z,44.0805
2023-04-27T02:31:47.911Z,44.1107
2023-04-27T02:32:51.852Z,43.9764
2023-04-27T02:33:55.757Z,43.8657
2023-04-27T02:34:59.639Z,42.1475
2023-04-27T02:36:03.538Z,41.8985
2023-04-27T02:37:07.416Z,44.1349
2023-04-27T02:38:11.360Z,44.1179
2023-04-27T02:39:15.529Z,44.0603
2023-04-27T02:40:19.646Z,43.9654
2023-04-27T02:41:23.524Z,42.3885
2023-04-27T02:42:27.959Z,42.0714
2023-04-27T02:43:31.856Z,44.1484
2023-04-27T02:44:35.800Z,44.0852
2023-04-27T02:45:39.719Z,43.9966
2023-04-27T02:46:43.613Z,43.8925
2023-04-27T02:47:47.632Z,42.3391
2023-04-27T02:48:51.498Z,40.6161
2023-04-27T02:49:55.412Z,43.9337
2023-04-27T02:50:59.331Z,44.0870
2023-04-27T02:52:03.229Z,43.9994
2023-04-27T02:53:07.098Z,43.9166
2023-04-27T02:54:11.016Z,42.9346
2023-04-27T02:55:14.899Z,40.4618
2023-04-27T02:56:19.021Z,43.7652
2023-04-27T02:57:22.964Z,44.1141
2023-04-27T02:58:26.842Z,44.0284
2023-04-27T02:59:30.940Z,43.9377
2023-04-27T03:00:34.896Z,43.3014
2023-04-27T03:01:39.193Z,41.0431
2023-04-27T03:02:43.245Z,43.9071
2023-04-27T03:03:47.263Z,44.1410
2023-04-27T03:04:51.385Z,44.0499
2023-04-27T03:05:55.346Z,43.9490
2023-04-27T03:06:59.251Z,43.3720
2023-04-27T03:08:03.125Z,40.0902
2023-04-27T03:09:07.046Z,42.9669
2023-04-27T03:10:10.939Z,44.2058
2023-04-27T03:11:14.852Z,44.0823
2023-04-27T03:12:18.974Z,43.9755
2023-04-27T03:13:22.879Z,43.6895
2023-04-27T03:14:27.039Z,40.3226
2023-04-27T03:15:30.965Z,41.2018
2023-04-27T03:16:34.855Z,44.1876
2023-04-27T03:17:38.793Z,44.1708
2023-04-27T03:18:42.669Z,44.0899
2023-04-27T03:19:46.573Z,43.9734
2023-04-27T03:20:50.462Z,41.7548
2023-04-27T03:21:54.396Z,40.7214
2023-04-27T03:22:58.268Z,44.1332
2023-04-27T03:24:02.182Z,44.2081
2023-04-27T03:25:06.070Z,44.0991
2023-04-27T03:26:09.977Z,43.9967
2023-04-27T03:27:13.891Z,42.6059
2023-04-27T03:28:17.791Z,40.0523
2023-04-27T03:29:21.678Z,43.7669
2023-04-27T03:30:25.582Z,44.2479
2023-04-27T03:31:29.487Z,44.1187
2023-04-27T03:32:33.420Z,44.0145
2023-04-27T03:33:37.341Z,43.2813
2023-04-27T03:34:41.229Z,39.7120
2023-04-27T03:35:45.113Z,42.7553
2023-04-27T03:36:49.029Z,44.3116
2023-04-27T03:37:52.931Z,44.1741
2023-04-27T03:38:56.809Z,44.0705
2023-04-27T03:40:00.778Z,43.7945
2023-04-27T03:41:04.650Z,40.2846
2023-04-27T03:42:08.564Z,40.6669
2023-04-27T03:43:12.455Z,44.2770
2023-04-27T03:44:16.369Z,44.3317
2023-04-27T03:45:20.245Z,44.2231
2023-04-27T03:46:24.234Z,44.1023
2023-04-27T03:47:28.172Z,42.3105
2023-04-27T03:48:32.064Z,42.9056
2023-04-27T03:49:35.918Z,44.3425
2023-04-27T03:50:39.823Z,44.2576
2023-04-27T03:51:43.714Z,44.1761
2023-04-27T03:52:47.669Z,44.0547
2023-04-27T03:53:51.548Z,41.8980
2023-04-27T03:54:55.452Z,41.3186
2023-04-27T03:55:59.342Z,44.3270
2023-04-27T03:57:03.248Z,44.3434
2023-04-27T03:58:07.299Z,44.2559
2023-04-27T03:59:11.406Z,44.1610
2023-04-27T04:00:15.325Z,42.6145
2023-04-27T04:01:19.213Z,41.3956
2023-04-27T04:02:23.174Z,44.2969
2023-04-27T04:03:27.385Z,44.3118
2023-04-27T04:04:31.797Z,44.2074
2023-04-27T04:05:35.840Z,44.0918
2023-04-27T04:06:39.750Z,42.7937
2023-04-27T04:07:43.647Z,40.0033
2023-04-27T04:08:47.555Z,43.7124
2023-04-27T04:09:51.431Z,44.4049
2023-04-27T04:10:55.356Z,44.3193
2023-04-27T04:11:59.238Z,44.2264
2023-04-27T04:13:03.133Z,43.5808
2023-04-27T04:14:07.049Z,42.6228
2023-04-27T04:15:10.943Z,44.3398
2023-04-27T04:16:14.887Z,44.2941
2023-04-27T04:17:18.797Z,44.2143
2023-04-27T04:18:22.673Z,44.1133
2023-04-27T04:19:26.881Z,43.0783
2023-04-27T04:20:30.745Z,38.9632
2023-04-27T04:21:34.669Z,41.8350
2023-04-27T04:22:38.589Z,44.4951
2023-04-27T04:23:42.492Z,44.4004
2023-04-27T04:24:46.399Z,44.3018
2023-04-27T04:25:50.344Z,44.0737
2023-04-27T04:26:54.197Z,41.0633
2023-04-27T04:27:58.092Z,42.4207
2023-04-27T04:29:02.298Z,44.4603
2023-04-27T04:30:06.355Z,44.3633
2023-04-27T04:31:10.335Z,44.2782
2023-04-27T04:32:14.229Z,44.1293
2023-04-27T04:33:18.133Z,41.5352
2023-04-27T04:34:22.033Z,41.2295
2023-04-27T04:35:25.924Z,44.4354
2023-04-27T04:36:29.834Z,44.4508
2023-04-27T04:37:33.719Z,44.3496
2023-04-27T04:38:37.614Z,44.2510
2023-04-27T04:39:41.544Z,42.5334
2023-04-27T04:40:46.198Z,40.7866
2023-04-27T04:41:50.071Z,44.2945
2023-04-27T04:42:53.950Z,44.4432
2023-04-27T04:43:58.105Z,44.3498
2023-04-27T04:45:02.009Z,44.2559
2023-04-27T04:46:06.020Z,43.0986
2023-04-27T04:47:10.154Z,39.9214
2023-04-27T04:48:14.037Z,43.6203
2023-04-27T04:49:17.957Z,44.5515
2023-04-27T04:50:21.849Z,44.4223
2023-04-27T04:51:25.779Z,44.3254
2023-04-27T04:52:29.699Z,43.7830
2023-04-27T04:53:33.597Z,40.5783
2023-04-27T04:54:37.473Z,43.4218
2023-04-27T04:55:41.379Z,44.5811
2023-04-27T04:56:45.272Z,44.5006
2023-04-27T04:57:49.202Z,44.4133
2023-04-27T04:58:53.070Z,44.0898
2023-04-27T04:59:56.968Z,41.1677
2023-04-27T05:01:00.851Z,43.4726
2023-04-27T05:02:05.189Z,44.5833
2023-04-27T05:03:09.138Z,44.4692
2023-04-27T05:04:13.291Z,44.3669
2023-04-27T05:05:17.367Z,44.1133
2023-04-27T05:06:21.275Z,41.0956
2023-04-27T05:07:25.243Z,42.6847
2023-04-27T05:08:29.111Z,44.6314
2023-04-27T05:09:33.053Z,44.5797
2023-04-27T05:10:36.941Z,44.5068
2023-04-27T05:11:40.832Z,44.3486
2023-04-27T05:12:44.739Z,42.4058
2023-04-27T05:13:48.731Z,44.0387
2023-04-27T05:14:52.598Z,44.5117
2023-04-27T05:15:56.592Z,44.4214
2023-04-27T05:17:00.463Z,44.3381
2023-04-27T05:18:04.411Z,44.1038
2023-04-27T05:19:08.320Z,40.8303
2023-04-27T05:20:12.199Z,40.1019
2023-04-27T05:21:16.136Z,44.3114
2023-04-27T05:22:20.017Z,44.6652
2023-04-27T05:23:24.059Z,44.5726
2023-04-27T05:24:27.970Z,44.4812
2023-04-27T05:25:31.844Z,43.3469
2023-04-27T05:26:35.744Z,44.1550
2023-04-27T05:27:39.691Z,44.5426
2023-04-27T05:28:43.841Z,44.4817
2023-04-27T05:29:47.749Z,44.4035
2023-04-27T05:30:51.633Z,44.2387
2023-04-27T05:31:55.566Z,41.6175
2023-04-27T05:32:59.506Z,38.6007
2023-04-27T05:34:03.446Z,43.2392
2023-04-27T05:35:07.330Z,44.7319
2023-04-27T05:36:11.206Z,44.6100
2023-04-27T05:37:15.129Z,44.5101
2023-04-27T05:38:19.100Z,43.7724
2023-04-27T05:39:23.024Z,41.2133
2023-04-27T05:40:26.871Z,44.2652
2023-04-27T05:41:31.014Z,44.6165
2023-04-27T05:42:34.907Z,44.6628
2023-04-27T05:43:38.816Z,48.6657
2023-04-27T05:44:42.704Z,48.6028
2023-04-27T05:45:46.650Z,48.0725
2023-04-27T05:46:50.557Z,42.9166
2023-04-27T05:47:54.477Z,35.6739
2023-04-27T05:48:58.392Z,32.1420
2023-04-27T05:50:02.322Z,32.7042
2023-04-27T05:51:06.188Z,39.5974
2023-04-27T05:52:10.114Z,46.3723
2023-04-27T05:53:13.992Z,52.1365
2023-04-27T05:54:17.977Z,56.9338
2023-04-27T05:55:21.829Z,54.7370
2023-04-27T05:56:25.753Z,54.0167
2023-04-27T05:57:29.670Z,58.2542
2023-04-27T05:58:33.613Z,61.5634
2023-04-27T05:59:37.505Z,63.6517
2023-04-27T06:00:41.398Z,62.9149
2023-04-27T06:01:45.301Z,51.4553
2023-04-27T06:02:49.383Z,46.0427
2023-04-27T06:03:53.504Z,51.0953
2023-04-27T06:04:57.506Z,56.3977
2023-04-27T06:06:01.399Z,60.6697
2023-04-27T06:07:05.313Z,62.9463
2023-04-27T06:08:09.211Z,55.9651
2023-04-27T06:09:13.243Z,47.0971
2023-04-27T06:10:17.275Z,50.7435
2023-04-27T06:11:21.421Z,56.0394
2023-04-27T06:12:25.335Z,60.3404
2023-04-27T06:13:29.253Z,62.4801
2023-04-27T06:14:33.207Z,58.3640
2023-04-27T06:15:37.110Z,49.1588
2023-04-27T06:16:41.017Z,52.2160
2023-04-27T06:17:44.924Z,57.3562
2023-04-27T06:18:48.825Z,61.0911
2023-04-27T06:19:52.726Z,62.2644
2023-04-27T06:20:56.625Z,58.3893
2023-04-27T06:22:00.538Z,48.6776
2023-04-27T06:23:04.410Z,51.0203
2023-04-27T06:24:08.283Z,56.2634
2023-04-27T06:25:12.183Z,60.2775
2023-04-27T06:26:16.062Z,61.6618
2023-04-27T06:27:20.000Z,58.8792
2023-04-27T06:28:23.889Z,47.8725
2023-04-27T06:29:27.764Z,46.3132
2023-04-27T06:30:31.642Z,52.0148
2023-04-27T06:31:35.601Z,57.1120
2023-04-27T06:32:39.484Z,60.5376
2023-04-27T06:33:43.380Z,60.8076
2023-04-27T06:34:47.430Z,52.0975
2023-04-27T06:35:51.319Z,47.9075
2023-04-27T06:36:55.217Z,52.9908
2023-04-27T06:37:59.185Z,57.8265
2023-04-27T06:39:03.142Z,60.6213
2023-04-27T06:40:07.101Z,60.6137
2023-04-27T06:41:10.980Z,53.3787
2023-04-27T06:42:14.878Z,45.2679
2023-04-27T06:43:18.779Z,49.1054
2023-04-27T06:44:22.938Z,54.5876
2023-04-27T06:45:26.868Z,58.8284
2023-04-27T06:46:30.789Z,60.4213
2023-04-27T06:47:34.788Z,56.9521
2023-04-27T06:48:38.664Z,46.5806
2023-04-27T06:49:42.563Z,46.9635
2023-04-27T06:50:46.482Z,52.6679
2023-04-27T06:51:50.394Z,57.4549
2023-04-27T06:52:54.317Z,60.0841
2023-04-27T06:53:58.199Z,59.2631
2023-04-27T06:55:02.100Z,50.6078
2023-04-27T06:56:06.012Z,50.3791
2023-04-27T06:57:09.932Z,55.5594
2023-04-27T06:58:13.911Z,59.2813
2023-04-27T06:59:17.784Z,59.9301
2023-04-27T07:00:21.702Z,58.6985
2023-04-27T07:01:25.648Z,49.4673
2023-04-27T07:02:29.551Z,46.3073
2023-04-27T07:03:33.599Z,51.8261
2023-04-27T07:04:37.575Z,56.8413
2023-04-27T07:05:41.515Z,59.5249
2023-04-27T07:06:45.442Z,59.4466
2023-04-27T07:07:49.343Z,52.7197
2023-04-27T07:08:53.233Z,48.2990
2023-04-27T07:09:57.319Z,53.2470
2023-04-27T07:11:01.205Z,57.6953
2023-04-27T07:12:05.094Z,59.2491
2023-04-27T07:13:09.579Z,58.9017
2023-04-27T07:14:13.893Z,52.5088
2023-04-27T07:15:17.811Z,44.3369
2023-04-27T07:16:21.784Z,47.8567
2023-04-27T07:17:25.665Z,53.5885
2023-04-27T07:18:29.506Z,57.7888
2023-04-27T07:19:33.406Z,59.1039
2023-04-27T07:20:37.285Z,56.6147
2023-04-27T07:21:41.302Z,47.2693
2023-04-27T07:22:45.192Z,48.1979
2023-04-27T07:23:49.092Z,53.6957
2023-04-27T07:24:53.021Z,57.7930
2023-04-27T07:25:56.914Z,58.8324
2023-04-27T07:27:00.826Z,57.4871
2023-04-27T07:28:04.713Z,48.2841
2023-04-27T07:29:22.975Z,44.7058
2023-04-27T07:30:13.157Z,50.4727
2023-04-27T07:31:17.121Z,55.3826
2023-04-27T07:32:21.043Z,58.3975
2023-04-27T07:33:24.947Z,58.5237
2023-04-27T07:34:32.897Z,52.5102
2023-04-27T07:35:33.619Z,44.9224
2023-04-27T07:36:37.521Z,49.0902
2023-04-27T07:37:41.437Z,54.4893
2023-04-27T07:38:45.352Z,57.9966
2023-04-27T07:39:49.293Z,58.4600
2023-04-27T07:40:53.197Z,55.2076
2023-04-27T07:41:57.147Z,46.6239
2023-04-27T07:43:01.032Z,49.2364
2023-04-27T07:44:04.933Z,54.5813
2023-04-27T07:45:08.823Z,57.9131
2023-04-27T07:46:12.748Z,58.2317
2023-04-27T07:47:16.716Z,56.2487
2023-04-27T07:48:20.680Z,47.1754
2023-04-27T07:49:24.555Z,47.2461
2023-04-27T07:50:28.454Z,52.8494
2023-04-27T07:51:32.337Z,57.0283
2023-04-27T07:52:36.222Z,58.0996
2023-04-27T07:53:40.104Z,57.2691
2023-04-27T07:54:44.053Z,49.1812
2023-04-27T07:55:47.955Z,46.0011
2023-04-27T07:56:51.865Z,51.4407
2023-04-27T07:57:55.761Z,56.1561
2023-04-27T07:58:59.644Z,57.9925
2023-04-27T08:00:03.529Z,57.6979
2023-04-27T08:01:07.532Z,51.6982
2023-04-27T08:02:19.534Z,46.0670
2023-04-27T08:03:16.053Z,51.1352
2023-04-27T08:04:20.628Z,55.7777
2023-04-27T08:05:24.796Z,57.7605
2023-04-27T08:06:29.699Z,57.5647
2023-04-27T08:07:35.507Z,52.8445
2023-04-27T08:08:36.839Z,46.4587
2023-04-27T08:09:40.736Z,50.8918
2023-04-27T08:10:44.644Z,55.7745
2023-04-27T08:11:48.552Z,57.6104
2023-04-27T08:12:52.458Z,57.4228
2023-04-27T08:13:56.407Z,53.8743
2023-04-27T08:15:00.311Z,46.8657
2023-04-27T08:16:04.219Z,50.6952
2023-04-27T08:17:08.146Z,55.5648
2023-04-27T08:18:12.116Z,57.3540
2023-04-27T08:19:16.384Z,57.1616
2023-04-27T08:20:20.332Z,54.2446
2023-04-27T08:21:24.201Z,45.7464
2023-04-27T08:22:28.087Z,47.7658
2023-04-27T08:23:31.999Z,53.3533
2023-04-27T08:24:35.975Z,56.8129
2023-04-27T08:25:39.875Z,57.1613
2023-04-27T08:26:43.813Z,55.8041
2023-04-27T08:27:47.705Z,47.3883
2023-04-27T08:28:51.614Z,46.6583
2023-04-27T08:29:55.542Z,52.2262
2023-04-27T08:30:59.480Z,56.2795
2023-04-27T08:32:03.394Z,57.0928
2023-04-27T08:33:07.355Z,56.4989
2023-04-27T08:34:11.564Z,49.2804
2023-04-27T08:35:15.485Z,44.8926
2023-04-27T08:36:19.358Z,50.0977
2023-04-27T08:37:23.283Z,54.9940
2023-04-27T08:38:27.228Z,56.9748
2023-04-27T08:39:31.149Z,56.7994
2023-04-27T08:40:35.059Z,52.1617
2023-04-27T08:41:38.974Z,44.1774
2023-04-27T08:42:42.871Z,47.3162
2023-04-27T08:43:46.769Z,52.9267
2023-04-27T08:44:50.696Z,56.4487
2023-04-27T08:45:54.597Z,56.8962
2023-04-27T08:46:58.470Z,55.0392
2023-04-27T08:48:02.409Z,47.5387
2023-04-27T08:49:06.339Z,49.9728
2023-04-27T08:50:10.220Z,54.9343
2023-04-27T08:51:14.164Z,56.8374
2023-04-27T08:52:18.055Z,56.6601
2023-04-27T08:53:21.957Z,54.9935
2023-04-27T08:54:25.866Z,47.1736
2023-04-27T08:55:29.789Z,48.7878
2023-04-27T08:56:33.707Z,54.0759
2023-04-27T08:57:37.649Z,56.5900
2023-04-27T08:58:41.548Z,56.5175
2023-04-27T08:59:45.564Z,55.2766
2023-04-27T09:00:50.780Z,47.2271
2023-04-27T09:01:51.145Z,46.3985
2023-04-27T09:02:55.307Z,51.8903
2023-04-27T09:03:59.772Z,55.9238
2023-04-27T09:05:04.170Z,56.5704
2023-04-27T09:06:08.227Z,56.0623
2023-04-27T09:07:08.420Z,49.5907
2023-04-27T09:08:12.338Z,46.0108
2023-04-27T09:09:16.385Z,51.2108
2023-04-27T09:10:20.309Z,55.5021
2023-04-27T09:11:24.189Z,56.4342
2023-04-27T09:12:28.086Z,56.1465
2023-04-27T09:13:31.972Z,51.3026
2023-04-27T09:14:35.867Z,46.1409
2023-04-27T09:15:39.767Z,50.9416
2023-04-27T09:16:44.020Z,55.3428
2023-04-27T09:17:48.032Z,56.3152
2023-04-27T09:18:51.967Z,56.0648
2023-04-27T09:19:55.852Z,52.2611
2023-04-27T09:20:59.762Z,46.2773
2023-04-27T09:22:03.679Z,50.6769
2023-04-27T09:23:07.619Z,55.2384
2023-04-27T09:24:11.506Z,56.2870
2023-04-27T09:25:15.403Z,56.0535
2023-04-27T09:26:19.286Z,52.9404
2023-04-27T09:27:23.479Z,46.5892
2023-04-27T09:28:27.405Z,50.6167
2023-04-27T09:29:31.314Z,55.0779
2023-04-27T09:30:35.202Z,56.0616
2023-04-27T09:31:39.202Z,55.8213
2023-04-27T09:32:43.120Z,53.1732
2023-04-27T09:33:47.036Z,44.8947
2023-04-27T09:34:51.183Z,46.5606
2023-04-27T09:35:55.064Z,52.3232
2023-04-27T09:36:58.951Z,55.6984
2023-04-27T09:38:02.845Z,55.9529
2023-04-27T09:39:06.761Z,54.9259
2023-04-27T09:40:10.645Z,48.6717
2023-04-27T09:41:14.566Z,50.9450
2023-04-27T09:42:18.480Z,55.1263
2023-04-27T09:43:22.351Z,55.7455
2023-04-27T09:44:26.249Z,55.5329
2023-04-27T09:45:30.194Z,54.0719
2023-04-27T09:46:34.073Z,45.8000
2023-04-27T09:47:38.060Z,44.0575
2023-04-27T09:48:41.975Z,49.8623
2023-04-27T09:49:45.856Z,54.5087
2023-04-27T09:50:49.769Z,55.8348
2023-04-27T09:51:53.683Z,55.5257
2023-04-27T09:52:57.592Z,50.1183
2023-04-27T09:54:01.513Z,47.3177
2023-04-27T09:55:05.413Z,52.4608
2023-04-27T09:56:09.325Z,55.5215
2023-04-27T09:57:13.219Z,55.5770
2023-04-27T09:58:17.118Z,55.2724
2023-04-27T09:59:21.049Z,49.9912
2023-04-27T10:00:25.221Z,43.0882
2023-04-27T10:01:29.176Z,46.9376
2023-04-27T10:02:35.116Z,52.4784
2023-04-27T10:03:37.654Z,55.4402
2023-04-27T10:04:41.713Z,55.4323
2023-04-27T10:05:45.689Z,53.3759
2023-04-27T10:06:49.581Z,44.8497
2023-04-27T10:07:53.486Z,44.7363
2023-04-27T10:08:57.537Z,50.5453
2023-04-27T10:10:01.434Z,54.7358
2023-04-27T10:11:05.362Z,55.6093
2023-04-27T10:12:09.265Z,55.1068
2023-04-27T10:13:13.160Z,48.5528
2023-04-27T10:14:17.071Z,45.8193
2023-04-27T10:15:20.988Z,51.1602
2023-04-27T10:16:25.016Z,55.0148
2023-04-27T10:17:25.297Z,55.5094
2023-04-27T10:18:29.193Z,55.2384
2023-04-27T10:19:33.085Z,50.5239
2023-04-27T10:20:37.006Z,45.8250
2023-04-27T10:21:40.912Z,50.7113
2023-04-27T10:22:44.814Z,54.7990
2023-04-27T10:23:48.745Z,55.4063
2023-04-27T10:24:52.656Z,55.1741
2023-04-27T10:25:56.540Z,51.4183
2023-04-27T10:27:00.707Z,45.3068
2023-04-27T10:28:04.617Z,49.5814
2023-04-27T10:29:08.773Z,54.2222
2023-04-27T10:30:12.703Z,55.3527
2023-04-27T10:31:16.654Z,55.1269
2023-04-27T10:32:20.543Z,52.5071
2023-04-27T10:33:24.429Z,47.3204
2023-04-27T10:34:28.336Z,51.6030
2023-04-27T10:35:32.257Z,54.9559
2023-04-27T10:36:36.188Z,55.1039
2023-04-27T10:37:40.090Z,54.8936
2023-04-27T10:38:43.999Z,51.9511
2023-04-27T10:39:49.588Z,45.3394
2023-04-27T10:40:49.014Z,49.0454
2023-04-27T10:41:52.913Z,53.6852
2023-04-27T10:42:56.862Z,55.0473
2023-04-27T10:44:00.758Z,54.8517
2023-04-27T10:45:04.648Z,53.1263
2023-04-27T10:46:08.596Z,45.9393
2023-04-27T10:47:12.747Z,48.1740
2023-04-27T10:48:16.632Z,53.2343
2023-04-27T10:49:20.572Z,54.8823
2023-04-27T10:50:24.436Z,54.7007
2023-04-27T10:51:28.348Z,53.5367
2023-04-27T10:52:32.271Z,46.1924
2023-04-27T10:53:36.179Z,46.5126
2023-04-27T10:54:40.119Z,51.9773
2023-04-27T10:55:44.027Z,54.7424
2023-04-27T10:56:47.938Z,54.7417
2023-04-27T10:57:51.835Z,54.1662
2023-04-27T10:58:55.722Z,47.6975
2023-04-27T10:59:59.612Z,46.5712
2023-04-27T11:01:03.565Z,51.9418
2023-04-27T11:02:07.482Z,54.6738
2023-04-27T11:03:11.619Z,54.6688
2023-04-27T11:04:15.822Z,54.2912
2023-04-27T11:05:19.961Z,48.4830
2023-04-27T11:06:23.841Z,46.2014
2023-04-27T11:07:27.877Z,51.4656
2023-04-27T11:08:31.798Z,54.5056
2023-04-27T11:09:35.748Z,54.5627
2023-04-27T11:10:39.640Z,54.2899
2023-04-27T11:11:43.578Z,49.2875
2023-04-27T11:12:47.472Z,44.0841
2023-04-27T11:13:51.413Z,48.8432
2023-04-27T11:14:55.313Z,53.4646
2023-04-27T11:15:59.258Z,54.5444
2023-04-27T11:17:03.109Z,54.3334
2023-04-27T11:18:07.049Z,51.4612
2023-04-27T11:19:10.989Z,44.1380
2023-04-27T11:20:14.917Z,46.9989
2023-04-27T11:21:19.081Z,52.4215
2023-04-27T11:22:23.005Z,54.6331
2023-04-27T11:23:26.867Z,54.5228
2023-04-27T11:24:30.776Z,53.1937
2023-04-27T11:25:34.730Z,46.8873
2023-04-27T11:26:38.611Z,49.5544
2023-04-27T11:27:42.512Z,53.8328
2023-04-27T11:28:46.746Z,54.4634
2023-04-27T11:29:50.645Z,54.2617
2023-04-27T11:30:54.573Z,52.8691
2023-04-27T11:31:58.776Z,45.5296
2023-04-27T11:33:02.760Z,46.4052
2023-04-27T11:34:07.816Z,51.9008
2023-04-27T11:35:11.794Z,54.3384
2023-04-27T11:36:15.689Z,54.2531
2023-04-27T11:37:19.572Z,53.5569
2023-04-27T11:38:23.569Z,46.6224
2023-04-27T11:39:27.492Z,43.3438
2023-04-27T11:40:31.393Z,48.8191
2023-04-27T11:41:35.325Z,53.4362
2023-04-27T11:42:39.219Z,54.4661
2023-04-27T11:43:43.121Z,54.2252
2023-04-27T11:44:47.074Z,50.2486
2023-04-27T11:45:50.937Z,44.4363
2023-04-27T11:46:54.917Z,48.8142
2023-04-27T11:47:58.847Z,53.3800
2023-04-27T11:49:02.986Z,54.3250
2023-04-27T11:50:06.879Z,54.1230
2023-04-27T11:51:10.816Z,51.6876
2023-04-27T11:52:14.715Z,43.7821
2023-04-27T11:53:18.941Z,45.2660
2023-04-27T11:54:22.991Z,51.0684
2023-04-27T11:55:26.914Z,54.2026
2023-04-27T11:56:30.823Z,54.2899
2023-04-27T11:57:34.756Z,53.5687
2023-04-27T11:58:38.681Z,46.7027
2023-04-27T11:59:42.559Z,44.9374
2023-04-27T12:00:46.462Z,50.5048
2023-04-27T12:01:50.607Z,54.0756
2023-04-27T12:02:54.665Z,54.3230
2023-04-27T12:04:02.145Z,54.0162
2023-04-27T12:05:01.183Z,48.7499
2023-04-27T12:06:21.504Z,45.1241
2023-04-27T12:07:09.755Z,50.5304
2023-04-27T12:08:13.664Z,53.9245
2023-04-27T12:09:17.577Z,54.1671
2023-04-27T12:10:21.514Z,53.9391
2023-04-27T12:11:25.484Z,50.2564
2023-04-27T12:12:29.399Z,44.1185
2023-04-27T12:13:33.318Z,48.3227
2023-04-27T12:14:37.221Z,53.1571
2023-04-27T12:15:41.134Z,54.2702
2023-04-27T12:16:45.090Z,54.0648
2023-04-27T12:17:49.050Z,52.0265
2023-04-27T12:18:52.971Z,44.9149
2023-04-27T12:19:56.904Z,47.5062
2023-04-27T12:21:02.983Z,52.6579
2023-04-27T12:22:01.888Z,54.2171
2023-04-27T12:23:05.842Z,54.0424
2023-04-27T12:24:09.729Z,53.0817
2023-04-27T12:25:13.613Z,45.9855
2023-04-27T12:26:17.522Z,45.4645
2023-04-27T12:27:21.411Z,51.0487
2023-04-27T12:28:25.326Z,53.9773
2023-04-27T12:29:29.276Z,53.9754
2023-04-27T12:30:33.154Z,53.5903
2023-04-27T12:31:37.071Z,47.8592
2023-04-27T12:32:40.970Z,43.4057
2023-04-27T12:33:45.119Z,48.5121
2023-04-27T12:34:49.020Z,53.1085
2023-04-27T12:35:53.195Z,54.0419
2023-04-27T12:36:57.074Z,53.8303
2023-04-27T12:38:00.959Z,50.7596
2023-04-27T12:39:04.876Z,43.5891
2023-04-27T12:40:08.754Z,46.5394
2023-04-27T12:41:12.636Z,51.9276
2023-04-27T12:42:16.568Z,54.0517
2023-04-27T12:43:20.429Z,53.9204
2023-04-27T12:44:24.315Z,52.7509
2023-04-27T12:45:28.199Z,45.4520
2023-04-27T12:46:32.137Z,45.4800
2023-04-27T12:48:37.559Z,54.0082
2023-04-27T12:49:41.420Z,53.9986
2023-04-27T12:50:45.315Z,53.6000
2023-04-27T12:51:49.207Z,47.8939
2023-04-27T12:52:53.100Z,45.1483
2023-04-27T12:53:58.725Z,50.4585